sensor_id;sensor_type;location;lat;lon;timestamp;pressure;altitude;pressure_sealevel;temperature
48003;BMP280;33768;48.578;11.574;2023-01-09T00:02:14;94921.13;;;3.59
48003;BMP280;33768;48.578;11.574;2023-01-09T00:05:19;94923.19;;;3.53
48003;BMP280;33768;48.578;11.574;2023-01-09T00:08:23;94922.75;;;3.49
48003;BMP280;33768;48.578;11.574;2023-01-09T00:11:28;94918.63;;;3.48
48003;BMP280;33768;48.578;11.574;2023-01-09T00:14:32;94910.31;;;3.46
48003;BMP280;33768;48.578;11.574;2023-01-09T00:17:36;94916.41;;;3.47
48003;BMP280;33768;48.578;11.574;2023-01-09T00:20:40;94917.47;;;3.44
48003;BMP280;33768;48.578;11.574;2023-01-09T00:23:45;94917.00;;;3.40
48003;BMP280;33768;48.578;11.574;2023-01-09T00:26:49;94917.00;;;3.40
48003;BMP280;33768;48.578;11.574;2023-01-09T00:29:54;94921.28;;;3.36
48003;BMP280;33768;48.578;11.574;2023-01-09T00:33:00;94927.69;;;3.33
48003;BMP280;33768;48.578;11.574;2023-01-09T00:36:04;94919.78;;;3.35
48003;BMP280;33768;48.578;11.574;2023-01-09T00:39:09;94915.56;;;3.39
48003;BMP280;33768;48.578;11.574;2023-01-09T00:42:20;94913.19;;;3.36
48003;BMP280;33768;48.578;11.574;2023-01-09T00:45:25;94913.38;;;3.38
48003;BMP280;33768;48.578;11.574;2023-01-09T00:48:32;94923.97;;;3.36
48003;BMP280;33768;48.578;11.574;2023-01-09T00:51:39;94924.47;;;3.34
48003;BMP280;33768;48.578;11.574;2023-01-09T00:54:44;94930.41;;;3.33
48003;BMP280;33768;48.578;11.574;2023-01-09T00:57:49;94927.47;;;3.31
48003;BMP280;33768;48.578;11.574;2023-01-09T01:00:53;94931.63;;;3.32
48003;BMP280;33768;48.578;11.574;2023-01-09T01:03:57;94923.25;;;3.35
48003;BMP280;33768;48.578;11.574;2023-01-09T01:07:01;94915.66;;;3.34
48003;BMP280;33768;48.578;11.574;2023-01-09T01:10:25;94919.59;;;3.33
48003;BMP280;33768;48.578;11.574;2023-01-09T01:13:29;94928.50;;;3.28
48003;BMP280;33768;48.578;11.574;2023-01-09T01:16:33;94936.78;;;3.30
48003;BMP280;33768;48.578;11.574;2023-01-09T01:19:38;94941.59;;;3.37
48003;BMP280;33768;48.578;11.574;2023-01-09T01:22:42;94944.22;;;3.42
48003;BMP280;33768;48.578;11.574;2023-01-09T01:25:46;94929.91;;;3.47
48003;BMP280;33768;48.578;11.574;2023-01-09T01:28:50;94937.78;;;3.45
48003;BMP280;33768;48.578;11.574;2023-01-09T01:31:54;94920.59;;;3.48
48003;BMP280;33768;48.578;11.574;2023-01-09T01:34:58;94923.28;;;3.48
48003;BMP280;33768;48.578;11.574;2023-01-09T01:38:03;94912.78;;;3.44
48003;BMP280;33768;48.578;11.574;2023-01-09T01:41:07;94909.16;;;3.42
48003;BMP280;33768;48.578;11.574;2023-01-09T01:47:59;94903.16;;;3.49
48003;BMP280;33768;48.578;11.574;2023-01-09T01:51:05;94917.81;;;3.53
48003;BMP280;33768;48.578;11.574;2023-01-09T01:54:15;94905.44;;;3.58
48003;BMP280;33768;48.578;11.574;2023-01-09T01:57:21;94907.34;;;3.63
48003;BMP280;33768;48.578;11.574;2023-01-09T02:00:30;94897.28;;;3.63
48003;BMP280;33768;48.578;11.574;2023-01-09T02:03:35;94899.47;;;3.65
48003;BMP280;33768;48.578;11.574;2023-01-09T02:06:41;94893.34;;;3.64
48003;BMP280;33768;48.578;11.574;2023-01-09T02:09:47;94896.84;;;3.59
48003;BMP280;33768;48.578;11.574;2023-01-09T02:12:51;94890.97;;;3.61
48003;BMP280;33768;48.578;11.574;2023-01-09T02:16:31;94891.69;;;3.61
48003;BMP280;33768;48.578;11.574;2023-01-09T02:26:35;94888.34;;;3.55
48003;BMP280;33768;48.578;11.574;2023-01-09T02:30:09;94885.84;;;3.57
48003;BMP280;33768;48.578;11.574;2023-01-09T02:40:22;94894.66;;;3.58
48003;BMP280;33768;48.578;11.574;2023-01-09T02:43:28;94880.44;;;3.57
48003;BMP280;33768;48.578;11.574;2023-01-09T02:46:32;94883.38;;;3.59
48003;BMP280;33768;48.578;11.574;2023-01-09T02:49:38;94882.97;;;3.55
48003;BMP280;33768;48.578;11.574;2023-01-09T02:53:09;94876.63;;;3.53
48003;BMP280;33768;48.578;11.574;2023-01-09T02:56:38;94870.47;;;3.52
48003;BMP280;33768;48.578;11.574;2023-01-09T02:59:54;94875.16;;;3.52
48003;BMP280;33768;48.578;11.574;2023-01-09T03:09:49;94862.56;;;3.42
48003;BMP280;33768;48.578;11.574;2023-01-09T03:12:56;94856.03;;;3.37
48003;BMP280;33768;48.578;11.574;2023-01-09T03:16:04;94850.13;;;3.39
48003;BMP280;33768;48.578;11.574;2023-01-09T03:19:15;94842.75;;;3.39
48003;BMP280;33768;48.578;11.574;2023-01-09T03:22:19;94836.34;;;3.42
48003;BMP280;33768;48.578;11.574;2023-01-09T03:25:24;94837.06;;;3.42
48003;BMP280;33768;48.578;11.574;2023-01-09T03:28:29;94837.06;;;3.42
48003;BMP280;33768;48.578;11.574;2023-01-09T03:31:33;94855.34;;;3.49
48003;BMP280;33768;48.578;11.574;2023-01-09T03:34:37;94850.16;;;3.51
48003;BMP280;33768;48.578;11.574;2023-01-09T03:37:41;94856.72;;;3.56
48003;BMP280;33768;48.578;11.574;2023-01-09T03:40:45;94867.91;;;3.60
48003;BMP280;33768;48.578;11.574;2023-01-09T03:43:49;94877.88;;;3.65
48003;BMP280;33768;48.578;11.574;2023-01-09T03:46:54;94872.91;;;3.69
48003;BMP280;33768;48.578;11.574;2023-01-09T03:49:58;94864.72;;;3.74
48003;BMP280;33768;48.578;11.574;2023-01-09T03:53:02;94867.09;;;3.77
48003;BMP280;33768;48.578;11.574;2023-01-09T03:56:06;94860.66;;;3.80
48003;BMP280;33768;48.578;11.574;2023-01-09T03:59:11;94865.78;;;3.84
48003;BMP280;33768;48.578;11.574;2023-01-09T04:02:16;94868.25;;;3.82
48003;BMP280;33768;48.578;11.574;2023-01-09T04:05:20;94869.31;;;3.79
48003;BMP280;33768;48.578;11.574;2023-01-09T04:08:24;94870.34;;;3.76
48003;BMP280;33768;48.578;11.574;2023-01-09T04:11:28;94872.09;;;3.73
48003;BMP280;33768;48.578;11.574;2023-01-09T04:14:33;94870.94;;;3.69
48003;BMP280;33768;48.578;11.574;2023-01-09T04:17:37;94874.91;;;3.68
48003;BMP280;33768;48.578;11.574;2023-01-09T04:20:45;94885.69;;;3.68
48003;BMP280;33768;48.578;11.574;2023-01-09T04:23:49;94884.44;;;3.69
48003;BMP280;33768;48.578;11.574;2023-01-09T04:26:54;94893.25;;;3.70
48003;BMP280;33768;48.578;11.574;2023-01-09T04:29:58;94911.63;;;3.71
48003;BMP280;33768;48.578;11.574;2023-01-09T04:33:03;94906.75;;;3.70
48003;BMP280;33768;48.578;11.574;2023-01-09T04:36:08;94905.69;;;3.72
48003;BMP280;33768;48.578;11.574;2023-01-09T04:39:12;94912.03;;;3.75
48003;BMP280;33768;48.578;11.574;2023-01-09T04:42:16;94923.28;;;3.79
48003;BMP280;33768;48.578;11.574;2023-01-09T04:45:20;94920.78;;;3.81
48003;BMP280;33768;48.578;11.574;2023-01-09T04:48:24;94928.47;;;3.90
48003;BMP280;33768;48.578;11.574;2023-01-09T04:51:28;94910.97;;;3.96
48003;BMP280;33768;48.578;11.574;2023-01-09T04:54:33;94932.34;;;4.07
48003;BMP280;33768;48.578;11.574;2023-01-09T04:57:37;94933.50;;;4.11
48003;BMP280;33768;48.578;11.574;2023-01-09T05:00:41;94944.22;;;4.17
48003;BMP280;33768;48.578;11.574;2023-01-09T05:03:45;94955.94;;;4.19
48003;BMP280;33768;48.578;11.574;2023-01-09T05:06:49;94958.44;;;4.17
48003;BMP280;33768;48.578;11.574;2023-01-09T05:09:54;94964.88;;;4.14
48003;BMP280;33768;48.578;11.574;2023-01-09T05:12:58;94968.81;;;4.13
48003;BMP280;33768;48.578;11.574;2023-01-09T05:16:02;94969.66;;;4.21
48003;BMP280;33768;48.578;11.574;2023-01-09T05:19:06;94968.94;;;4.34
48003;BMP280;33768;48.578;11.574;2023-01-09T05:22:11;94980.28;;;4.45
48003;BMP280;33768;48.578;11.574;2023-01-09T05:25:15;94982.03;;;4.55
48003;BMP280;33768;48.578;11.574;2023-01-09T05:28:19;94975.50;;;4.64
48003;BMP280;33768;48.578;11.574;2023-01-09T05:31:25;94985.56;;;4.76
48003;BMP280;33768;48.578;11.574;2023-01-09T05:34:30;95000.22;;;4.93
48003;BMP280;33768;48.578;11.574;2023-01-09T05:37:34;95004.28;;;5.12
48003;BMP280;33768;48.578;11.574;2023-01-09T05:40:38;95000.16;;;5.31
48003;BMP280;33768;48.578;11.574;2023-01-09T05:43:42;95010.81;;;5.62
48003;BMP280;33768;48.578;11.574;2023-01-09T05:46:46;95009.31;;;5.87
48003;BMP280;33768;48.578;11.574;2023-01-09T05:49:50;95010.75;;;6.08
48003;BMP280;33768;48.578;11.574;2023-01-09T05:52:54;95016.53;;;6.25
48003;BMP280;33768;48.578;11.574;2023-01-09T05:55:59;95019.47;;;6.34
48003;BMP280;33768;48.578;11.574;2023-01-09T05:59:03;95028.94;;;6.41
48003;BMP280;33768;48.578;11.574;2023-01-09T06:02:07;95043.59;;;6.45
48003;BMP280;33768;48.578;11.574;2023-01-09T06:05:11;95031.34;;;6.52
48003;BMP280;33768;48.578;11.574;2023-01-09T06:08:16;95041.47;;;6.51
48003;BMP280;33768;48.578;11.574;2023-01-09T06:11:20;95045.63;;;6.52
48003;BMP280;33768;48.578;11.574;2023-01-09T06:14:24;95043.25;;;6.49
48003;BMP280;33768;48.578;11.574;2023-01-09T06:17:28;95040.50;;;6.41
48003;BMP280;33768;48.578;11.574;2023-01-09T06:20:33;95041.00;;;6.40
48003;BMP280;33768;48.578;11.574;2023-01-09T06:23:37;95054.19;;;6.36
48003;BMP280;33768;48.578;11.574;2023-01-09T06:26:40;95045.50;;;6.37
48003;BMP280;33768;48.578;11.574;2023-01-09T06:29:45;95054.38;;;6.38
48003;BMP280;33768;48.578;11.574;2023-01-09T06:32:49;95067.59;;;6.41
48003;BMP280;33768;48.578;11.574;2023-01-09T06:35:53;95075.50;;;6.39
48003;BMP280;33768;48.578;11.574;2023-01-09T06:38:58;95064.88;;;6.41
48003;BMP280;33768;48.578;11.574;2023-01-09T06:42:02;95072.53;;;6.70
48003;BMP280;33768;48.578;11.574;2023-01-09T06:45:06;95073.84;;;7.04
48003;BMP280;33768;48.578;11.574;2023-01-09T06:48:11;95086.97;;;7.20
48003;BMP280;33768;48.578;11.574;2023-01-09T06:51:15;95107.84;;;7.33
48003;BMP280;33768;48.578;11.574;2023-01-09T06:54:20;95102.03;;;7.56
48003;BMP280;33768;48.578;11.574;2023-01-09T06:57:27;95106.94;;;7.03
48003;BMP280;33768;48.578;11.574;2023-01-09T07:00:31;95131.84;;;6.74
48003;BMP280;33768;48.578;11.574;2023-01-09T07:03:35;95141.56;;;6.49
48003;BMP280;33768;48.578;11.574;2023-01-09T07:06:40;95141.09;;;6.58
48003;BMP280;33768;48.578;11.574;2023-01-09T07:09:44;95152.81;;;6.73
48003;BMP280;33768;48.578;11.574;2023-01-09T07:12:48;95147.03;;;6.36
48003;BMP280;33768;48.578;11.574;2023-01-09T07:15:52;95154.78;;;6.20
48003;BMP280;33768;48.578;11.574;2023-01-09T07:18:56;95154.31;;;6.08
48003;BMP280;33768;48.578;11.574;2023-01-09T07:22:00;95163.72;;;5.94
48003;BMP280;33768;48.578;11.574;2023-01-09T07:25:05;95176.03;;;5.83
48003;BMP280;33768;48.578;11.574;2023-01-09T07:28:09;95178.09;;;5.77
48003;BMP280;33768;48.578;11.574;2023-01-09T07:31:13;95200.16;;;5.68
48003;BMP280;33768;48.578;11.574;2023-01-09T07:34:18;95218.91;;;5.66
48003;BMP280;33768;48.578;11.574;2023-01-09T07:37:22;95227.34;;;5.62
48003;BMP280;33768;48.578;11.574;2023-01-09T07:40:26;95246.81;;;5.61
48003;BMP280;33768;48.578;11.574;2023-01-09T07:43:30;95243.69;;;5.57
48003;BMP280;33768;48.578;11.574;2023-01-09T07:46:34;95254.72;;;5.59
48003;BMP280;33768;48.578;11.574;2023-01-09T07:49:38;95258.16;;;5.60
48003;BMP280;33768;48.578;11.574;2023-01-09T07:52:44;95256.69;;;5.59
48003;BMP280;33768;48.578;11.574;2023-01-09T07:55:49;95252.22;;;5.61
48003;BMP280;33768;48.578;11.574;2023-01-09T07:58:53;95256.19;;;5.60
48003;BMP280;33768;48.578;11.574;2023-01-09T08:01:57;95267.00;;;5.60
48003;BMP280;33768;48.578;11.574;2023-01-09T08:05:02;95261.16;;;5.56
48003;BMP280;33768;48.578;11.574;2023-01-09T08:08:06;95275.94;;;5.55
48003;BMP280;33768;48.578;11.574;2023-01-09T08:11:10;95272.00;;;5.56
48003;BMP280;33768;48.578;11.574;2023-01-09T08:14:14;95274.69;;;5.56
48003;BMP280;33768;48.578;11.574;2023-01-09T08:17:18;95278.56;;;5.60
48003;BMP280;33768;48.578;11.574;2023-01-09T08:20:23;95275.34;;;5.62
48003;BMP280;33768;48.578;11.574;2023-01-09T08:23:27;95283.25;;;5.60
48003;BMP280;33768;48.578;11.574;2023-01-09T08:26:31;95286.91;;;5.62
48003;BMP280;33768;48.578;11.574;2023-01-09T08:29:35;95279.19;;;5.66
48003;BMP280;33768;48.578;11.574;2023-01-09T08:32:40;95272.69;;;5.75
48003;BMP280;33768;48.578;11.574;2023-01-09T08:35:44;95287.25;;;5.85
48003;BMP280;33768;48.578;11.574;2023-01-09T08:39:18;95287.03;;;5.95
48003;BMP280;33768;48.578;11.574;2023-01-09T08:42:22;95284.00;;;5.99
48003;BMP280;33768;48.578;11.574;2023-01-09T08:45:45;95292.25;;;6.06
48003;BMP280;33768;48.578;11.574;2023-01-09T08:49:08;95289.31;;;6.04
48003;BMP280;33768;48.578;11.574;2023-01-09T08:52:12;95298.28;;;5.99
48003;BMP280;33768;48.578;11.574;2023-01-09T08:55:17;95307.56;;;5.91
48003;BMP280;33768;48.578;11.574;2023-01-09T08:58:21;95323.69;;;5.84
48003;BMP280;33768;48.578;11.574;2023-01-09T09:01:25;95317.88;;;5.93
48003;BMP280;33768;48.578;11.574;2023-01-09T09:04:29;95334.75;;;5.98
48003;BMP280;33768;48.578;11.574;2023-01-09T09:07:33;95338.28;;;5.93
48003;BMP280;33768;48.578;11.574;2023-01-09T09:10:38;95334.75;;;5.86
48003;BMP280;33768;48.578;11.574;2023-01-09T09:13:42;95332.44;;;5.77
48003;BMP280;33768;48.578;11.574;2023-01-09T09:16:48;95344.31;;;5.87
48003;BMP280;33768;48.578;11.574;2023-01-09T09:19:52;95341.09;;;5.88
48003;BMP280;33768;48.578;11.574;2023-01-09T09:22:57;95341.09;;;5.88
48003;BMP280;33768;48.578;11.574;2023-01-09T09:26:01;95338.78;;;5.92
48003;BMP280;33768;48.578;11.574;2023-01-09T09:29:05;95330.28;;;6.01
48003;BMP280;33768;48.578;11.574;2023-01-09T09:32:10;95325.91;;;6.11
48003;BMP280;33768;48.578;11.574;2023-01-09T09:35:15;95325.56;;;6.14
48003;BMP280;33768;48.578;11.574;2023-01-09T09:38:23;95315.38;;;6.33
48003;BMP280;33768;48.578;11.574;2023-01-09T09:41:46;95318.28;;;6.48
48003;BMP280;33768;48.578;11.574;2023-01-09T09:48:51;95329.91;;;6.68
48003;BMP280;33768;48.578;11.574;2023-01-09T09:55:27;95318.34;;;7.01
48003;BMP280;33768;48.578;11.574;2023-01-09T09:58:52;95336.31;;;6.91
48003;BMP280;33768;48.578;11.574;2023-01-09T10:05:22;95328.06;;;6.96
48003;BMP280;33768;48.578;11.574;2023-01-09T10:14:54;95334.50;;;6.73
48003;BMP280;33768;48.578;11.574;2023-01-09T10:18:45;95335.97;;;6.61
48003;BMP280;33768;48.578;11.574;2023-01-09T10:22:32;95337.50;;;6.70
48003;BMP280;33768;48.578;11.574;2023-01-09T10:25:35;95344.41;;;6.71
48003;BMP280;33768;48.578;11.574;2023-01-09T10:32:00;95328.09;;;6.84
48003;BMP280;33768;48.578;11.574;2023-01-09T10:39:11;95316.75;;;6.72
48003;BMP280;33768;48.578;11.574;2023-01-09T10:45:53;95322.16;;;6.72
48003;BMP280;33768;48.578;11.574;2023-01-09T10:49:00;95327.47;;;6.78
48003;BMP280;33768;48.578;11.574;2023-01-09T10:52:16;95324.53;;;6.88
48003;BMP280;33768;48.578;11.574;2023-01-09T10:55:34;95331.28;;;6.95
48003;BMP280;33768;48.578;11.574;2023-01-09T10:58:42;95326.16;;;7.04
48003;BMP280;33768;48.578;11.574;2023-01-09T11:01:47;95332.84;;;7.03
48003;BMP280;33768;48.578;11.574;2023-01-09T11:04:51;95322.56;;;7.09
48003;BMP280;33768;48.578;11.574;2023-01-09T11:07:58;95329.41;;;7.23
48003;BMP280;33768;48.578;11.574;2023-01-09T11:11:03;95328.47;;;7.20
48003;BMP280;33768;48.578;11.574;2023-01-09T11:14:23;95333.72;;;7.18
48003;BMP280;33768;48.578;11.574;2023-01-09T11:17:33;95331.00;;;7.18
48003;BMP280;33768;48.578;11.574;2023-01-09T11:20:37;95329.22;;;7.21
48003;BMP280;33768;48.578;11.574;2023-01-09T11:23:41;95321.00;;;7.14
48003;BMP280;33768;48.578;11.574;2023-01-09T11:26:47;95330.59;;;7.15
48003;BMP280;33768;48.578;11.574;2023-01-09T11:30:15;95335.16;;;7.19
48003;BMP280;33768;48.578;11.574;2023-01-09T11:33:24;95328.09;;;7.17
48003;BMP280;33768;48.578;11.574;2023-01-09T11:36:29;95323.25;;;7.22
48003;BMP280;33768;48.578;11.574;2023-01-09T11:39:35;95319.81;;;7.22
48003;BMP280;33768;48.578;11.574;2023-01-09T11:42:59;95322.44;;;7.15
48003;BMP280;33768;48.578;11.574;2023-01-09T11:46:07;95321.84;;;7.09
48003;BMP280;33768;48.578;11.574;2023-01-09T11:52:17;95327.03;;;7.19
48003;BMP280;33768;48.578;11.574;2023-01-09T11:55:25;95322.81;;;7.31
48003;BMP280;33768;48.578;11.574;2023-01-09T11:58:31;95311.69;;;7.42
48003;BMP280;33768;48.578;11.574;2023-01-09T12:11:49;95327.50;;;7.51
48003;BMP280;33768;48.578;11.574;2023-01-09T12:22:12;95337.56;;;7.43
48003;BMP280;33768;48.578;11.574;2023-01-09T12:25:31;95339.94;;;7.47
48003;BMP280;33768;48.578;11.574;2023-01-09T12:28:49;95344.13;;;7.47
48003;BMP280;33768;48.578;11.574;2023-01-09T12:35:30;95339.41;;;7.48
48003;BMP280;33768;48.578;11.574;2023-01-09T12:38:40;95342.97;;;7.43
48003;BMP280;33768;48.578;11.574;2023-01-09T12:45:32;95345.84;;;7.38
48003;BMP280;33768;48.578;11.574;2023-01-09T12:52:11;95341.19;;;7.46
48003;BMP280;33768;48.578;11.574;2023-01-09T12:55:23;95333.31;;;7.55
48003;BMP280;33768;48.578;11.574;2023-01-09T12:58:38;95341.69;;;7.57
48003;BMP280;33768;48.578;11.574;2023-01-09T13:01:47;95338.31;;;7.64
48003;BMP280;33768;48.578;11.574;2023-01-09T13:04:59;95334.91;;;7.71
48003;BMP280;33768;48.578;11.574;2023-01-09T13:08:14;95340.41;;;7.78
48003;BMP280;33768;48.578;11.574;2023-01-09T13:11:27;95329.28;;;7.69
48003;BMP280;33768;48.578;11.574;2023-01-09T13:14:54;95339.94;;;7.67
48003;BMP280;33768;48.578;11.574;2023-01-09T13:18:19;95332.38;;;7.73
48003;BMP280;33768;48.578;11.574;2023-01-09T13:21:26;95326.50;;;7.81
48003;BMP280;33768;48.578;11.574;2023-01-09T13:27:58;95323.38;;;7.78
48003;BMP280;33768;48.578;11.574;2023-01-09T13:34:36;95316.94;;;7.88
48003;BMP280;33768;48.578;11.574;2023-01-09T13:37:42;95321.28;;;7.91
48003;BMP280;33768;48.578;11.574;2023-01-09T13:41:15;95313.69;;;7.89
48003;BMP280;33768;48.578;11.574;2023-01-09T13:44:38;95310.25;;;7.89
48003;BMP280;33768;48.578;11.574;2023-01-09T13:47:44;95318.91;;;7.87
48003;BMP280;33768;48.578;11.574;2023-01-09T13:50:48;95306.56;;;7.79
48003;BMP280;33768;48.578;11.574;2023-01-09T13:53:53;95304.44;;;7.65
48003;BMP280;33768;48.578;11.574;2023-01-09T14:03:33;95296.66;;;7.41
48003;BMP280;33768;48.578;11.574;2023-01-09T14:06:38;95307.03;;;7.30
48003;BMP280;33768;48.578;11.574;2023-01-09T14:09:51;95298.69;;;7.28
48003;BMP280;33768;48.578;11.574;2023-01-09T14:12:57;95306.97;;;7.22
48003;BMP280;33768;48.578;11.574;2023-01-09T14:16:18;95322.53;;;7.22
48003;BMP280;33768;48.578;11.574;2023-01-09T14:19:38;95316.38;;;7.21
48003;BMP280;33768;48.578;11.574;2023-01-09T14:22:42;95315.97;;;7.17
48003;BMP280;33768;48.578;11.574;2023-01-09T14:25:47;95327.16;;;7.14
48003;BMP280;33768;48.578;11.574;2023-01-09T14:28:51;95314.09;;;7.13
48003;BMP280;33768;48.578;11.574;2023-01-09T14:35:59;95319.56;;;7.00
48003;BMP280;33768;48.578;11.574;2023-01-09T14:39:06;95323.16;;;6.95
48003;BMP280;33768;48.578;11.574;2023-01-09T14:42:15;95328.91;;;6.91
48003;BMP280;33768;48.578;11.574;2023-01-09T14:45:26;95333.91;;;6.87
48003;BMP280;33768;48.578;11.574;2023-01-09T14:48:30;95327.03;;;6.86
48003;BMP280;33768;48.578;11.574;2023-01-09T14:51:37;95328.59;;;6.82
48003;BMP280;33768;48.578;11.574;2023-01-09T14:54:46;95342.72;;;6.81
48003;BMP280;33768;48.578;11.574;2023-01-09T14:57:51;95352.81;;;6.80
48003;BMP280;33768;48.578;11.574;2023-01-09T15:01:26;95358.88;;;6.73
48003;BMP280;33768;48.578;11.574;2023-01-09T15:04:33;95355.75;;;6.69
48003;BMP280;33768;48.578;11.574;2023-01-09T15:07:42;95355.16;;;6.63
48003;BMP280;33768;48.578;11.574;2023-01-09T15:10:51;95368.91;;;6.53
48003;BMP280;33768;48.578;11.574;2023-01-09T15:13:56;95369.22;;;6.49
48003;BMP280;33768;48.578;11.574;2023-01-09T15:17:03;95377.69;;;6.46
48003;BMP280;33768;48.578;11.574;2023-01-09T15:20:16;95382.91;;;6.44
48003;BMP280;33768;48.578;11.574;2023-01-09T15:23:24;95389.88;;;6.39
48003;BMP280;33768;48.578;11.574;2023-01-09T15:26:31;95393.63;;;6.36
48003;BMP280;33768;48.578;11.574;2023-01-09T15:29:35;95391.25;;;6.33
48003;BMP280;33768;48.578;11.574;2023-01-09T15:32:54;95384.66;;;6.28
48003;BMP280;33768;48.578;11.574;2023-01-09T15:36:43;95392.06;;;6.28
48003;BMP280;33768;48.578;11.574;2023-01-09T15:40:00;95402.91;;;6.28
48003;BMP280;33768;48.578;11.574;2023-01-09T15:43:16;95406.66;;;6.25
48003;BMP280;33768;48.578;11.574;2023-01-09T15:46:25;95406.84;;;6.27
48003;BMP280;33768;48.578;11.574;2023-01-09T15:49:29;95411.34;;;6.24
48003;BMP280;33768;48.578;11.574;2023-01-09T15:52:34;95411.16;;;6.23
48003;BMP280;33768;48.578;11.574;2023-01-09T15:55:38;95420.59;;;6.16
48003;BMP280;33768;48.578;11.574;2023-01-09T15:58:56;95431.75;;;6.13
48003;BMP280;33768;48.578;11.574;2023-01-09T16:02:27;95429.34;;;6.09
48003;BMP280;33768;48.578;11.574;2023-01-09T16:06:05;95431.88;;;6.07
48003;BMP280;33768;48.578;11.574;2023-01-09T16:09:15;95430.16;;;6.04
48003;BMP280;33768;48.578;11.574;2023-01-09T16:12:26;95428.50;;;6.01
48003;BMP280;33768;48.578;11.574;2023-01-09T16:15:33;95431.00;;;5.99
48003;BMP280;33768;48.578;11.574;2023-01-09T16:18:38;95437.66;;;5.98
48003;BMP280;33768;48.578;11.574;2023-01-09T16:21:58;95439.94;;;5.94
48003;BMP280;33768;48.578;11.574;2023-01-09T16:25:28;95435.56;;;5.92
48003;BMP280;33768;48.578;11.574;2023-01-09T16:28:34;95440.03;;;5.89
48003;BMP280;33768;48.578;11.574;2023-01-09T16:31:38;95447.22;;;5.87
48003;BMP280;33768;48.578;11.574;2023-01-09T16:34:42;95446.06;;;5.82
48003;BMP280;33768;48.578;11.574;2023-01-09T16:37:48;95449.88;;;5.74
48003;BMP280;33768;48.578;11.574;2023-01-09T16:41:03;95456.06;;;5.69
48003;BMP280;33768;48.578;11.574;2023-01-09T16:44:32;95457.34;;;5.68
48003;BMP280;33768;48.578;11.574;2023-01-09T16:47:36;95459.59;;;5.64
48003;BMP280;33768;48.578;11.574;2023-01-09T16:50:41;95461.91;;;5.60
48003;BMP280;33768;48.578;11.574;2023-01-09T16:53:47;95467.09;;;5.58
48003;BMP280;33768;48.578;11.574;2023-01-09T16:56:53;95468.34;;;5.57
48003;BMP280;33768;48.578;11.574;2023-01-09T17:00:00;95475.84;;;5.64
48003;BMP280;33768;48.578;11.574;2023-01-09T17:03:04;95483.69;;;5.67
48003;BMP280;33768;48.578;11.574;2023-01-09T17:06:20;95478.00;;;5.71
48003;BMP280;33768;48.578;11.574;2023-01-09T17:09:26;95476.72;;;5.72
48003;BMP280;33768;48.578;11.574;2023-01-09T17:12:30;95479.22;;;5.70
48003;BMP280;33768;48.578;11.574;2023-01-09T17:15:34;95489.53;;;5.71
48003;BMP280;33768;48.578;11.574;2023-01-09T17:18:38;95484.84;;;5.72
48003;BMP280;33768;48.578;11.574;2023-01-09T17:21:43;95497.88;;;5.73
48003;BMP280;33768;48.578;11.574;2023-01-09T17:24:48;95489.47;;;5.77
48003;BMP280;33768;48.578;11.574;2023-01-09T17:28:16;95490.13;;;5.83
48003;BMP280;33768;48.578;11.574;2023-01-09T17:31:36;95502.00;;;5.80
48003;BMP280;33768;48.578;11.574;2023-01-09T17:34:41;95501.25;;;5.79
48003;BMP280;33768;48.578;11.574;2023-01-09T17:37:45;95502.34;;;5.71
48003;BMP280;33768;48.578;11.574;2023-01-09T17:40:49;95515.13;;;5.70
48003;BMP280;33768;48.578;11.574;2023-01-09T17:43:54;95508.56;;;5.66
48003;BMP280;33768;48.578;11.574;2023-01-09T17:46:59;95529.78;;;5.62
48003;BMP280;33768;48.578;11.574;2023-01-09T17:50:04;95547.56;;;5.58
48003;BMP280;33768;48.578;11.574;2023-01-09T17:53:08;95551.28;;;5.55
48003;BMP280;33768;48.578;11.574;2023-01-09T17:56:15;95567.53;;;5.55
48003;BMP280;33768;48.578;11.574;2023-01-09T17:59:20;95568.63;;;5.46
48003;BMP280;33768;48.578;11.574;2023-01-09T18:02:25;95581.97;;;5.39
48003;BMP280;33768;48.578;11.574;2023-01-09T18:05:29;95605.03;;;5.27
48003;BMP280;33768;48.578;11.574;2023-01-09T18:08:34;95592.06;;;5.20
48003;BMP280;33768;48.578;11.574;2023-01-09T18:11:39;95601.47;;;5.14
48003;BMP280;33768;48.578;11.574;2023-01-09T18:14:43;95603.81;;;5.04
48003;BMP280;33768;48.578;11.574;2023-01-09T18:17:47;95600.19;;;4.97
48003;BMP280;33768;48.578;11.574;2023-01-09T18:20:51;95608.34;;;4.91
48003;BMP280;33768;48.578;11.574;2023-01-09T18:23:56;95608.94;;;4.84
48003;BMP280;33768;48.578;11.574;2023-01-09T18:27:01;95612.13;;;4.83
48003;BMP280;33768;48.578;11.574;2023-01-09T18:30:06;95633.53;;;4.81
48003;BMP280;33768;48.578;11.574;2023-01-09T18:33:11;95623.78;;;4.72
48003;BMP280;33768;48.578;11.574;2023-01-09T18:36:16;95625.50;;;4.70
48003;BMP280;33768;48.578;11.574;2023-01-09T18:39:21;95636.31;;;4.70
48003;BMP280;33768;48.578;11.574;2023-01-09T18:42:25;95650.31;;;4.74
48003;BMP280;33768;48.578;11.574;2023-01-09T18:45:31;95641.69;;;4.75
48003;BMP280;33768;48.578;11.574;2023-01-09T18:48:35;95643.38;;;4.78
48003;BMP280;33768;48.578;11.574;2023-01-09T18:51:39;95636.50;;;4.77
48003;BMP280;33768;48.578;11.574;2023-01-09T18:54:43;95643.38;;;4.78
48003;BMP280;33768;48.578;11.574;2023-01-09T18:57:48;95642.66;;;4.78
48003;BMP280;33768;48.578;11.574;2023-01-09T19:00:54;95646.84;;;4.79
48003;BMP280;33768;48.578;11.574;2023-01-09T19:03:58;95653.69;;;4.80
48003;BMP280;33768;48.578;11.574;2023-01-09T19:07:02;95654.19;;;4.78
48003;BMP280;33768;48.578;11.574;2023-01-09T19:10:07;95667.69;;;4.78
48003;BMP280;33768;48.578;11.574;2023-01-09T19:13:12;95664.78;;;4.76
48003;BMP280;33768;48.578;11.574;2023-01-09T19:16:16;95672.16;;;4.76
48003;BMP280;33768;48.578;11.574;2023-01-09T19:19:21;95677.34;;;4.74
48003;BMP280;33768;48.578;11.574;2023-01-09T19:22:25;95675.38;;;4.74
48003;BMP280;33768;48.578;11.574;2023-01-09T19:25:29;95682.78;;;4.68
48003;BMP280;33768;48.578;11.574;2023-01-09T19:28:34;95683.56;;;4.64
48003;BMP280;33768;48.578;11.574;2023-01-09T19:31:39;95689.00;;;4.58
48003;BMP280;33768;48.578;11.574;2023-01-09T19:34:43;95692.00;;;4.55
48003;BMP280;33768;48.578;11.574;2023-01-09T19:37:50;95680.69;;;4.51
48003;BMP280;33768;48.578;11.574;2023-01-09T19:40:54;95693.25;;;4.48
48003;BMP280;33768;48.578;11.574;2023-01-09T19:43:59;95695.75;;;4.46